Time;durP1;ratioP1;P1;durP2;ratioP2;P2;SDS_P1;SDS_P2;PMS_P1;PMS_P2;Temp;Humidity;BMP_temperature;BMP_pressure;BME280_temperature;BME280_humidity;BME280_pressure;Samples;Min_cycle;Max_cycle;Signal;HPM_P1;HPM_P2
2023/06/07 00:00:46;;;;;;;3.70;2.33;;;21.20;46.90;;;;;;4992570;28;20171;-73
2023/06/07 00:03:14;;;;;;;4.53;2.50;;;21.10;47.10;;;;;;4992964;28;20275;-73
2023/06/07 00:05:39;;;;;;;3.43;2.40;;;21.10;47.30;;;;;;4992351;28;20574;-73
2023/06/07 00:08:06;;;;;;;2.70;2.37;;;21.00;47.40;;;;;;5009627;28;20702;-73
2023/06/07 00:10:33;;;;;;;3.00;1.73;;;21.00;47.60;;;;;;4993328;28;20566;-73
2023/06/07 00:13:01;;;;;;;4.30;2.73;;;20.90;47.70;;;;;;4993998;28;20577;-73
2023/06/07 00:15:27;;;;;;;4.00;2.30;;;20.90;47.90;;;;;;4993609;28;20577;-73
2023/06/07 00:17:53;;;;;;;4.07;2.67;;;20.90;48.00;;;;;;4976540;28;20602;-73
2023/06/07 00:20:18;;;;;;;4.53;2.43;;;20.90;48.30;;;;;;4976354;28;20202;-73
2023/06/07 00:22:47;;;;;;;5.33;2.30;;;20.90;48.50;;;;;;4976104;28;20202;-73
2023/06/07 00:25:13;;;;;;;3.90;2.40;;;20.90;48.50;;;;;;4992688;28;20550;-73
2023/06/07 00:27:38;;;;;;;3.50;2.43;;;20.90;48.60;;;;;;4992977;28;20667;-73
2023/06/07 00:30:05;;;;;;;6.90;2.63;;;20.90;48.80;;;;;;4976262;28;20730;-73
2023/06/07 00:32:31;;;;;;;5.47;3.00;;;20.90;49.00;;;;;;4993450;28;20983;-72
2023/06/07 00:34:57;;;;;;;3.90;2.97;;;21.00;49.30;;;;;;4996295;28;21141;-73
2023/06/07 00:37:23;;;;;;;4.80;2.97;;;20.90;49.20;;;;;;4979294;28;21216;-73
2023/06/07 00:39:49;;;;;;;4.23;2.50;;;20.90;49.40;;;;;;4994918;28;20617;-73
2023/06/07 00:42:18;;;;;;;3.73;2.90;;;21.00;49.50;;;;;;4995760;28;20253;-73
2023/06/07 00:44:44;;;;;;;5.80;2.83;;;21.00;49.70;;;;;;4994864;28;20585;-73
2023/06/07 00:47:10;;;;;;;4.43;2.50;;;21.00;49.80;;;;;;4995064;28;20185;-73
2023/06/07 00:49:37;;;;;;;3.93;2.80;;;21.00;49.90;;;;;;4965359;28;20203;-73
2023/06/07 00:52:03;;;;;;;3.47;2.87;;;21.00;50.00;;;;;;4992856;28;20645;-73
2023/06/07 00:54:29;;;;;;;6.03;2.97;;;21.00;50.00;;;;;;4959748;28;20242;-73
2023/06/07 00:56:57;;;;;;;3.47;2.57;;;21.00;50.10;;;;;;4975543;28;21114;-73
2023/06/07 00:59:23;;;;;;;4.50;2.27;;;21.10;50.30;;;;;;4991863;28;20621;-73
2023/06/07 01:01:53;;;;;;;4.00;2.57;;;21.00;50.30;;;;;;4992181;28;20182;-74
2023/06/07 01:04:23;;;;;;;3.80;2.53;;;21.00;50.70;;;;;;4975233;28;20256;-73
2023/06/07 01:06:52;;;;;;;4.33;2.47;;;21.00;50.90;;;;;;4991247;28;20633;-73
2023/06/07 01:09:18;;;;;;;3.40;2.33;;;21.00;51.40;;;;;;4992877;28;20669;-72
2023/06/07 01:11:48;;;;;;;4.27;2.87;;;21.00;51.30;;;;;;4992414;28;20689;-73
2023/06/07 01:14:15;;;;;;;3.80;2.87;;;21.00;51.30;;;;;;4992318;28;20609;-73
2023/06/07 01:16:44;;;;;;;5.23;2.63;;;21.00;51.40;;;;;;4975317;28;20594;-73
2023/06/07 01:19:23;;;;;;;3.97;3.10;;;21.00;51.70;;;;;;4991062;28;20622;-73
2023/06/07 01:21:57;;;;;;;3.00;2.17;;;21.00;52.00;;;;;;4943027;28;21217;-73
2023/06/07 01:24:23;;;;;;;2.90;2.60;;;20.90;51.90;;;;;;4955498;28;20591;-73
2023/06/07 01:26:57;;;;;;;5.80;2.93;;;20.90;51.90;;;;;;4988634;28;20644;-73
2023/06/07 01:29:24;;;;;;;4.37;2.63;;;20.90;52.10;;;;;;4974766;28;20738;-72
2023/06/07 01:31:52;;;;;;;4.30;2.53;;;20.90;52.20;;;;;;4981045;28;20591;-73
2023/06/07 01:34:21;;;;;;;7.67;3.40;;;20.90;52.70;;;;;;5010059;28;20581;-72
2023/06/07 01:36:48;;;;;;;3.53;2.97;;;20.90;52.80;;;;;;4970663;28;20581;-73
2023/06/07 01:39:17;;;;;;;3.60;2.50;;;20.90;53.00;;;;;;4994425;28;20675;-73
2023/06/07 01:41:44;;;;;;;3.80;3.40;;;20.90;53.20;;;;;;4993620;28;20682;-73
2023/06/07 01:44:12;;;;;;;4.30;2.93;;;20.80;53.40;;;;;;4989358;28;20589;-73
2023/06/07 01:46:38;;;;;;;4.00;3.13;;;20.80;53.50;;;;;;5002357;28;20589;-73
2023/06/07 01:49:06;;;;;;;5.77;3.27;;;20.80;53.70;;;;;;4987202;28;20652;-73
2023/06/07 01:51:32;;;;;;;4.13;3.60;;;20.80;54.00;;;;;;4973800;28;21325;-73
2023/06/07 01:53:59;;;;;;;4.10;2.80;;;20.80;54.10;;;;;;4974500;28;20607;-73
2023/06/07 01:56:48;;;;;;;4.63;3.10;;;20.80;54.40;;;;;;4974296;28;20701;-73
2023/06/07 01:59:52;;;;;;;4.30;3.57;;;20.80;55.20;;;;;;4984259;28;21220;-73
2023/06/07 02:02:56;;;;;;;3.93;3.30;;;20.80;55.40;;;;;;4977934;28;20612;-73
2023/06/07 02:05:28;;;;;;;5.07;2.70;;;20.80;54.80;;;;;;4941516;28;20691;-72
2023/06/07 02:07:56;;;;;;;4.77;3.10;;;20.80;55.10;;;;;;4915132;29;20656;-73
2023/06/07 02:10:25;;;;;;;6.70;2.90;;;20.80;55.20;;;;;;4955148;28;21151;-73
2023/06/07 02:12:53;;;;;;;3.13;2.73;;;20.80;55.80;;;;;;4958075;28;20609;-73
2023/06/07 02:15:22;;;;;;;6.30;3.33;;;20.80;55.90;;;;;;4973982;28;21010;-73
2023/06/07 02:17:58;;;;;;;7.53;4.03;;;20.80;56.10;;;;;;4958364;28;20594;-73
2023/06/07 02:20:28;;;;;;;5.47;3.30;;;20.80;56.20;;;;;;4957555;28;20581;-73
2023/06/07 02:22:55;;;;;;;8.67;3.47;;;20.80;56.70;;;;;;4975594;28;20570;-73
2023/06/07 02:25:24;;;;;;;5.20;3.60;;;20.80;56.70;;;;;;4991541;28;20635;-73
2023/06/07 02:27:51;;;;;;;4.80;4.00;;;20.80;57.00;;;;;;4973680;28;20715;-73
2023/06/07 02:30:17;;;;;;;4.90;3.80;;;20.80;57.20;;;;;;4973484;28;20591;-73
2023/06/07 02:32:48;;;;;;;3.90;3.20;;;20.90;57.60;;;;;;4991747;28;20617;-73
2023/06/07 02:35:16;;;;;;;3.70;3.20;;;20.90;57.90;;;;;;4995201;28;20935;-84
2023/06/07 02:37:41;;;;;;;8.40;3.70;;;20.90;58.20;;;;;;5000787;28;20616;-85
2023/06/07 02:40:09;;;;;;;5.03;3.60;;;20.90;58.80;;;;;;5006581;28;20570;-84
2023/06/07 02:42:36;;;;;;;3.33;2.60;;;20.90;58.70;;;;;;4988700;28;20178;-85
2023/06/07 02:45:02;;;;;;;4.80;3.23;;;20.90;58.90;;;;;;4958666;28;20633;-85
2023/06/07 02:47:31;;;;;;;7.83;3.90;;;20.90;59.20;;;;;;4957939;28;20643;-86
2023/06/07 02:49:58;;;;;;;5.50;3.73;;;20.90;59.70;;;;;;4974378;28;20589;-85
2023/06/07 02:52:25;;;;;;;4.83;3.70;;;21.00;59.90;;;;;;4974038;28;20579;-84
2023/06/07 02:54:51;;;;;;;4.60;3.43;;;21.00;60.20;;;;;;4958803;28;20269;-85
2023/06/07 02:57:17;;;;;;;5.80;3.70;;;21.00;60.70;;;;;;4975807;28;20661;-85
2023/06/07 02:59:44;;;;;;;5.53;3.90;;;21.00;61.20;;;;;;4961562;28;20607;-84
2023/06/07 03:02:13;;;;;;;4.30;3.60;;;21.00;62.10;;;;;;4958302;28;20590;-85
2023/06/07 03:04:40;;;;;;;6.23;3.20;;;21.00;62.50;;;;;;4958543;28;21181;-85
2023/06/07 03:07:07;;;;;;;4.57;3.60;;;21.00;63.10;;;;;;4974279;28;20578;-85
2023/06/07 03:09:38;;;;;;;4.80;4.03;;;21.00;63.80;;;;;;4960597;28;20625;-85
2023/06/07 03:12:04;;;;;;;3.97;3.60;;;21.00;64.50;;;;;;4962803;28;20593;-85
2023/06/07 03:14:38;;;;;;;3.93;2.80;;;21.00;64.80;;;;;;4978432;28;20590;-85
2023/06/07 03:17:04;;;;;;;5.80;4.47;;;21.00;65.00;;;;;;4977855;28;20585;-84
2023/06/07 03:19:32;;;;;;;4.67;3.77;;;21.00;65.80;;;;;;4978156;28;20964;-84
2023/06/07 03:21:58;;;;;;;9.10;3.93;;;21.00;67.20;;;;;;4961520;28;20592;-84
2023/06/07 03:24:24;;;;;;;5.40;3.10;;;20.90;66.80;;;;;;4995866;28;20586;-84
2023/06/07 03:26:52;;;;;;;6.47;3.50;;;20.90;67.50;;;;;;5004033;28;20678;-83
2023/06/07 03:29:18;;;;;;;5.57;4.27;;;20.90;67.80;;;;;;4978762;28;20676;-84
2023/06/07 03:31:43;;;;;;;4.57;4.07;;;20.90;68.60;;;;;;4984008;28;21166;-85
2023/06/07 03:34:14;;;;;;;4.43;3.13;;;20.90;69.00;;;;;;4977635;28;20930;-85
2023/06/07 03:36:40;;;;;;;5.57;3.70;;;20.90;69.50;;;;;;4985820;28;20592;-86
2023/06/07 03:39:06;;;;;;;5.40;3.90;;;20.90;70.10;;;;;;4980424;28;21042;-85
2023/06/07 03:41:32;;;;;;;3.33;2.93;;;20.90;70.70;;;;;;4980243;28;20624;-85
2023/06/07 03:44:02;;;;;;;5.03;3.20;;;20.90;71.40;;;;;;4965027;28;20229;-85
2023/06/07 03:46:28;;;;;;;5.57;4.03;;;20.90;71.90;;;;;;4977396;28;20593;-87
2023/06/07 03:48:54;;;;;;;5.80;4.20;;;20.90;72.60;;;;;;4992955;28;20648;-84
2023/06/07 03:51:22;;;;;;;6.03;4.17;;;20.90;73.30;;;;;;4976843;28;20668;-79
2023/06/07 03:53:48;;;;;;;4.30;3.83;;;20.90;73.80;;;;;;4993053;28;20930;-79
2023/06/07 03:56:14;;;;;;;7.40;4.30;;;20.90;74.50;;;;;;4966228;28;20585;-79
2023/06/07 03:58:40;;;;;;;7.10;4.83;;;20.90;75.10;;;;;;4976795;28;20605;-79
2023/06/07 04:01:11;;;;;;;4.47;4.07;;;20.90;75.80;;;;;;4965184;28;20611;-80
2023/06/07 04:03:37;;;;;;;6.53;4.13;;;20.90;76.50;;;;;;4957318;28;20590;-80
2023/06/07 04:06:05;;;;;;;5.80;4.20;;;20.90;77.80;;;;;;4956884;28;20601;-80
2023/06/07 04:08:36;;;;;;;5.10;3.83;;;21.00;77.80;;;;;;4971876;28;20657;-80
2023/06/07 04:11:02;;;;;;;6.40;4.10;;;20.90;78.40;;;;;;4976855;28;20714;-80
2023/06/07 04:13:32;;;;;;;7.83;4.60;;;21.00;78.90;;;;;;4996822;28;20736;-80
2023/06/07 04:15:57;;;;;;;12.13;4.63;;;21.00;79.60;;;;;;4994654;28;20577;-79
2023/06/07 04:18:25;;;;;;;6.37;4.20;;;21.00;79.70;;;;;;4994038;28;20768;-79
2023/06/07 04:20:51;;;;;;;7.90;4.60;;;21.00;80.20;;;;;;4993219;28;20643;-79
2023/06/07 04:23:17;;;;;;;5.70;4.23;;;21.00;80.70;;;;;;5010508;28;21172;-80
2023/06/07 04:25:46;;;;;;;6.37;3.57;;;21.00;81.00;;;;;;4979559;28;20317;-80
2023/06/07 04:28:12;;;;;;;5.80;4.00;;;21.00;81.60;;;;;;4987708;28;20804;-80
2023/06/07 04:30:40;;;;;;;6.77;6.07;;;21.00;81.90;;;;;;5002223;28;20593;-79
2023/06/07 04:33:10;;;;;;;8.10;4.90;;;21.00;82.20;;;;;;4995106;28;20589;-79
2023/06/07 04:35:42;;;;;;;7.30;4.33;;;21.00;82.70;;;;;;4986363;28;20595;-79
2023/06/07 04:38:11;;;;;;;5.30;3.73;;;21.10;83.40;;;;;;4991187;28;20632;-79
2023/06/07 04:40:41;;;;;;;10.57;4.30;;;21.00;83.60;;;;;;4978669;28;20629;-79
2023/06/07 04:43:10;;;;;;;5.10;3.30;;;21.10;83.90;;;;;;4995413;28;20684;-80
2023/06/07 04:45:40;;;;;;;4.50;3.40;;;21.10;84.30;;;;;;4972353;28;20697;-80
2023/06/07 04:48:07;;;;;;;3.87;3.10;;;21.00;84.80;;;;;;4956455;28;20741;-79
2023/06/07 04:50:34;;;;;;;4.63;3.30;;;21.00;84.90;;;;;;4976266;28;20583;-79
2023/06/07 04:53:02;;;;;;;6.27;4.10;;;21.00;85.10;;;;;;4972404;28;21202;-79
2023/06/07 04:55:34;;;;;;;6.30;3.90;;;21.00;85.70;;;;;;4972508;28;21038;-79
2023/06/07 04:58:05;;;;;;;4.90;4.03;;;21.00;86.40;;;;;;4956343;28;21221;-79
2023/06/07 05:00:32;;;;;;;4.70;3.73;;;21.00;86.60;;;;;;4956208;28;20592;-79
2023/06/07 05:03:06;;;;;;;8.60;4.20;;;21.00;86.90;;;;;;4971840;28;20594;-79
2023/06/07 05:05:36;;;;;;;4.60;3.70;;;21.00;86.90;;;;;;4972582;28;20945;-79
2023/06/07 05:08:03;;;;;;;5.70;4.37;;;21.00;87.50;;;;;;4971827;28;21162;-79
2023/06/07 05:10:29;;;;;;;5.13;4.23;;;21.00;87.60;;;;;;4985524;28;20585;-79
2023/06/07 05:12:59;;;;;;;5.33;3.43;;;21.00;87.70;;;;;;4978224;28;21414;-79
2023/06/07 05:15:24;;;;;;;6.63;4.73;;;21.00;88.00;;;;;;4995075;28;20681;-80
2023/06/07 05:17:51;;;;;;;4.80;4.10;;;21.00;88.50;;;;;;4978166;28;20631;-79
2023/06/07 05:20:17;;;;;;;6.00;3.20;;;21.10;88.90;;;;;;4978562;28;20589;-79
2023/06/07 05:22:45;;;;;;;7.07;3.40;;;21.10;89.20;;;;;;4994800;28;20573;-80
2023/06/07 05:25:11;;;;;;;4.80;3.67;;;21.10;89.40;;;;;;4989339;28;20620;-80
2023/06/07 05:27:38;;;;;;;5.90;3.93;;;21.10;89.50;;;;;;4995748;28;20641;-80
2023/06/07 05:30:06;;;;;;;7.07;4.27;;;21.10;89.80;;;;;;4974738;28;20606;-80
2023/06/07 05:32:34;;;;;;;5.17;4.17;;;21.10;90.00;;;;;;4975149;28;20578;-80
2023/06/07 05:35:01;;;;;;;7.37;3.97;;;21.10;90.10;;;;;;4974851;28;20593;-80
2023/06/07 05:37:28;;;;;;;10.87;4.83;;;21.10;90.10;;;;;;4979108;28;21139;-80
2023/06/07 05:39:54;;;;;;;3.97;3.40;;;21.10;90.30;;;;;;5010879;28;20628;-81
2023/06/07 05:42:20;;;;;;;6.40;3.90;;;21.20;90.50;;;;;;4994265;28;20581;-80
2023/06/07 05:44:50;;;;;;;6.43;3.93;;;21.10;90.50;;;;;;4978615;28;20182;-80
2023/06/07 05:47:16;;;;;;;5.50;3.67;;;21.10;90.60;;;;;;4977871;28;20609;-80
2023/06/07 05:49:43;;;;;;;5.83;3.53;;;21.10;90.70;;;;;;4994558;28;20590;-80
2023/06/07 05:52:09;;;;;;;8.73;4.40;;;21.20;90.70;;;;;;4994457;28;20685;-80
2023/06/07 05:54:38;;;;;;;4.97;4.40;;;21.10;90.80;;;;;;4995379;28;20586;-79
2023/06/07 05:57:04;;;;;;;5.23;3.60;;;21.20;91.10;;;;;;5012851;28;20584;-80
2023/06/07 05:59:30;;;;;;;7.07;4.10;;;21.10;91.00;;;;;;4979547;28;20609;-80
2023/06/07 06:01:56;;;;;;;5.13;3.50;;;21.10;91.20;;;;;;4996354;28;20600;-78
2023/06/07 06:04:22;;;;;;;6.23;4.07;;;21.20;91.30;;;;;;5014613;28;20945;-79
2023/06/07 06:06:48;;;;;;;5.53;3.90;;;21.20;91.50;;;;;;4994480;28;20936;-79
2023/06/07 06:09:14;;;;;;;9.23;4.73;;;21.20;91.60;;;;;;4991720;28;21015;-79
2023/06/07 06:11:40;;;;;;;10.60;4.43;;;21.20;91.70;;;;;;4974547;28;20566;-80
2023/06/07 06:14:06;;;;;;;6.67;4.10;;;21.20;91.70;;;;;;4999270;28;20167;-78
2023/06/07 06:16:31;;;;;;;6.90;3.83;;;21.20;91.80;;;;;;5001047;28;20289;-80
2023/06/07 06:18:57;;;;;;;4.80;3.13;;;21.20;92.40;;;;;;4993534;28;20255;-77
2023/06/07 06:21:23;;;;;;;7.73;3.90;;;21.30;92.10;;;;;;4990085;28;20276;-80
2023/06/07 06:23:48;;;;;;;5.40;3.90;;;21.30;92.20;;;;;;5003339;28;20175;-80
2023/06/07 06:26:14;;;;;;;6.47;4.13;;;21.30;92.40;;;;;;5010997;28;20171;-81
2023/06/07 06:28:40;;;;;;;4.50;3.40;;;21.30;92.30;;;;;;4982709;28;20847;-80
2023/06/07 06:31:08;;;;;;;5.90;4.20;;;21.40;92.40;;;;;;4993020;28;20174;-80
2023/06/07 06:33:35;;;;;;;4.90;4.10;;;21.40;92.50;;;;;;5008711;28;20565;-80
2023/06/07 06:36:01;;;;;;;7.73;4.93;;;21.40;92.50;;;;;;4990488;28;20598;-80
2023/06/07 06:38:27;;;;;;;6.07;4.30;;;21.40;92.50;;;;;;4991622;28;20206;-80
2023/06/07 06:40:52;;;;;;;8.27;3.60;;;21.50;92.60;;;;;;4977709;28;20179;-79
2023/06/07 06:43:18;;;;;;;6.17;3.63;;;21.50;92.60;;;;;;4989558;28;20182;-79
2023/06/07 06:45:48;;;;;;;6.60;3.00;;;21.50;92.90;;;;;;4990400;28;20183;-80
2023/06/07 06:48:13;;;;;;;6.10;3.70;;;21.50;92.60;;;;;;4990874;28;20637;-80
2023/06/07 06:50:39;;;;;;;6.60;3.80;;;21.60;92.70;;;;;;4991271;28;20206;-80
2023/06/07 06:53:05;;;;;;;4.47;3.23;;;21.60;92.70;;;;;;4990878;28;20206;-80
2023/06/07 06:55:31;;;;;;;5.17;3.70;;;21.60;92.80;;;;;;4991384;28;20178;-79
2023/06/07 06:57:56;;;;;;;6.50;3.80;;;21.70;92.90;;;;;;4991419;28;20203;-79
2023/06/07 07:00:23;;;;;;;4.73;3.30;;;21.70;92.80;;;;;;4990812;28;20585;-79
2023/06/07 07:02:49;;;;;;;7.93;3.80;;;21.80;92.90;;;;;;4991199;28;20549;-79
2023/06/07 07:05:15;;;;;;;6.27;4.13;;;21.80;92.90;;;;;;4990955;28;20713;-80
2023/06/07 07:07:41;;;;;;;5.87;3.50;;;21.90;92.90;;;;;;4979034;28;20752;-80
2023/06/07 07:10:08;;;;;;;7.83;5.30;;;21.90;92.80;;;;;;4992629;28;20920;-80
2023/06/07 07:12:39;;;;;;;4.33;3.93;;;21.90;92.80;;;;;;4993074;28;20581;-80
2023/06/07 07:15:05;;;;;;;9.17;4.10;;;21.90;92.90;;;;;;4999796;28;20584;-80
2023/06/07 07:17:31;;;;;;;6.27;3.10;;;21.90;93.20;;;;;;4996731;28;20594;-80
2023/06/07 07:19:57;;;;;;;5.27;3.83;;;21.90;92.90;;;;;;4998154;28;20590;-80
2023/06/07 07:22:23;;;;;;;4.90;3.20;;;21.90;92.90;;;;;;4973115;28;20222;-80
2023/06/07 07:24:48;;;;;;;6.27;3.17;;;21.90;92.90;;;;;;4973664;28;20206;-80
2023/06/07 07:27:14;;;;;;;6.97;3.20;;;21.90;93.50;;;;;;4990330;28;20175;-80
2023/06/07 07:29:40;;;;;;;5.10;3.30;;;21.90;93.20;;;;;;4990736;28;20277;-80
2023/06/07 07:32:06;;;;;;;6.43;3.90;;;21.90;93.20;;;;;;4972532;28;20582;-80
2023/06/07 07:34:32;;;;;;;4.53;3.27;;;21.80;93.30;;;;;;4974972;28;20187;-79
2023/06/07 07:37:02;;;;;;;5.40;3.77;;;21.80;93.40;;;;;;4986681;28;20601;-79
2023/06/07 07:39:28;;;;;;;5.80;4.23;;;21.80;93.80;;;;;;5010262;28;20249;-80
2023/06/07 07:41:54;;;;;;;5.90;3.57;;;21.80;93.70;;;;;;5010231;28;20570;-79
2023/06/07 07:44:20;;;;;;;5.23;4.33;;;21.80;93.80;;;;;;4992558;28;20965;-79
2023/06/07 07:46:46;;;;;;;5.10;4.37;;;21.80;94.00;;;;;;5010530;28;20553;-79
2023/06/07 07:49:11;;;;;;;5.33;3.43;;;21.80;94.40;;;;;;5009812;28;20209;-77
2023/06/07 07:51:37;;;;;;;9.10;4.17;;;21.80;94.50;;;;;;4992769;28;20181;-78
2023/06/07 07:54:04;;;;;;;8.27;3.70;;;21.80;94.70;;;;;;4997723;28;20228;-77
2023/06/07 07:56:30;;;;;;;7.10;3.90;;;21.90;94.80;;;;;;4994550;28;20526;-78
2023/06/07 07:58:55;;;;;;;5.23;3.20;;;21.90;94.90;;;;;;4997008;28;20616;-79
2023/06/07 08:01:22;;;;;;;4.73;4.00;;;22.00;95.10;;;;;;5013938;28;20580;-79
2023/06/07 08:03:48;;;;;;;9.03;4.37;;;22.00;95.10;;;;;;4982325;28;20178;-80
2023/06/07 08:06:15;;;;;;;6.07;4.17;;;22.10;95.10;;;;;;5015528;28;20588;-79
2023/06/07 08:08:41;;;;;;;7.63;4.60;;;22.20;95.30;;;;;;4996243;28;20357;-78
2023/06/07 08:11:06;;;;;;;6.50;4.57;;;22.20;95.40;;;;;;5013517;28;21208;-78
2023/06/07 08:13:33;;;;;;;9.43;4.30;;;22.30;95.60;;;;;;5000675;28;20606;-79
2023/06/07 08:15:59;;;;;;;5.47;3.70;;;22.40;95.60;;;;;;4988495;28;20179;-80
2023/06/07 08:18:24;;;;;;;6.30;4.60;;;22.50;95.70;;;;;;4995728;28;20607;-79
2023/06/07 08:20:51;;;;;;;7.63;5.00;;;22.60;95.70;;;;;;4996222;28;20270;-78
2023/06/07 08:23:16;;;;;;;6.40;5.00;;;22.80;95.80;;;;;;4995850;28;20182;-79
2023/06/07 08:25:42;;;;;;;6.67;4.10;;;22.80;95.80;;;;;;4996258;28;20577;-80
2023/06/07 08:28:08;;;;;;;6.40;4.80;;;23.00;95.80;;;;;;4989141;28;20629;-79
2023/06/07 08:30:34;;;;;;;5.97;4.97;;;23.10;95.90;;;;;;4997362;28;20509;-77
2023/06/07 08:33:00;;;;;;;8.57;4.67;;;23.20;95.80;;;;;;4994176;28;20574;-78
2023/06/07 08:35:26;;;;;;;5.87;4.60;;;23.30;95.80;;;;;;4993526;28;20161;-78
2023/06/07 08:37:52;;;;;;;7.10;4.77;;;23.50;96.10;;;;;;5009010;28;20736;-77
2023/06/07 08:40:19;;;;;;;7.47;4.50;;;23.70;96.20;;;;;;5012791;28;20733;-79
2023/06/07 08:42:45;;;;;;;5.80;4.17;;;24.00;96.30;;;;;;4979433;28;20186;-80
2023/06/07 08:45:11;;;;;;;7.63;4.97;;;24.20;96.30;;;;;;4995266;28;20581;-80
2023/06/07 08:47:40;;;;;;;7.37;5.60;;;24.50;96.10;;;;;;5013104;28;20631;-78
2023/06/07 08:50:09;;;;;;;7.10;5.40;;;24.70;95.80;;;;;;5012405;28;20616;-79
2023/06/07 08:52:39;;;;;;;5.80;4.30;;;24.90;95.40;;;;;;5012978;28;20930;-79
2023/06/07 08:55:10;;;;;;;5.30;4.43;;;25.10;95.30;;;;;;5013517;28;20613;-77
2023/06/07 08:57:36;;;;;;;7.33;4.93;;;25.80;96.50;;;;;;4994888;28;20592;-76
2023/06/07 09:00:06;;;;;;;4.80;3.43;;;26.80;97.50;;;;;;4995135;28;20586;-76
2023/06/07 09:02:33;;;;;;;5.93;4.60;;;28.00;96.80;;;;;;5012328;28;20627;-77
2023/06/07 09:05:05;;;;;;;7.57;3.90;;;29.20;95.30;;;;;;4995287;28;20601;-77
2023/06/07 09:07:32;;;;;;;10.83;4.00;;;30.20;94.00;;;;;;5011949;28;21182;-77
2023/06/07 09:09:57;;;;;;;9.73;4.50;;;31.30;92.40;;;;;;4985993;28;20983;-77
2023/06/07 09:12:23;;;;;;;3.93;3.20;;;32.20;90.00;;;;;;5007182;28;20583;-77
2023/06/07 09:14:50;;;;;;;3.90;3.43;;;33.00;86.00;;;;;;5011403;28;20177;-77
2023/06/07 09:17:16;;;;;;;5.43;3.67;;;33.40;80.90;;;;;;4993341;28;20191;-77
2023/06/07 09:19:42;;;;;;;4.33;3.70;;;33.60;75.90;;;;;;4992242;28;20592;-77
2023/06/07 09:22:12;;;;;;;4.53;3.07;;;33.80;73.60;;;;;;4992890;28;20312;-76
2023/06/07 09:24:38;;;;;;;3.33;2.90;;;34.10;71.40;;;;;;4975128;28;20682;-77
2023/06/07 09:27:04;;;;;;;6.10;3.30;;;34.40;68.70;;;;;;4992904;28;20585;-77
2023/06/07 09:29:38;;;;;;;5.23;3.63;;;34.70;66.30;;;;;;4992013;28;21067;-78
2023/06/07 09:32:21;;;;;;;5.50;3.23;;;35.10;64.70;;;;;;4992524;28;20566;-77
2023/06/07 09:34:48;;;;;;;6.20;4.17;;;35.50;63.30;;;;;;4958742;28;20574;-77
2023/06/07 09:37:16;;;;;;;5.60;3.80;;;35.60;60.00;;;;;;4975148;28;21153;-77
2023/06/07 09:39:43;;;;;;;4.60;4.20;;;35.30;57.20;;;;;;4974980;28;20643;-76
2023/06/07 09:42:16;;;;;;;4.30;3.43;;;34.70;55.60;;;;;;4974598;28;20571;-77
2023/06/07 09:44:42;;;;;;;5.77;3.40;;;34.40;55.40;;;;;;4983505;28;20624;-77
2023/06/07 09:47:20;;;;;;;7.80;4.13;;;34.30;56.10;;;;;;4974431;28;20647;-77
2023/06/07 09:49:45;;;;;;;5.80;3.37;;;34.10;55.10;;;;;;4971323;28;20664;-77
2023/06/07 09:52:16;;;;;;;4.93;2.80;;;34.20;56.50;;;;;;4987765;28;20616;-77
2023/06/07 09:54:43;;;;;;;5.20;3.27;;;34.50;57.10;;;;;;4973006;28;20193;-77
2023/06/07 09:57:11;;;;;;;6.60;3.70;;;34.90;57.00;;;;;;4990217;28;20578;-78
2023/06/07 09:59:38;;;;;;;4.60;2.80;;;35.40;56.40;;;;;;4973270;28;20717;-77
2023/06/07 10:02:26;;;;;;;4.73;3.70;;;35.90;56.10;;;;;;4973050;28;20589;-77
2023/06/07 10:04:55;;;;;;;3.77;2.83;;;36.50;54.80;;;;;;4974969;28;20578;-77
2023/06/07 10:07:23;;;;;;;4.63;3.37;;;36.90;54.20;;;;;;5000311;28;20613;-77
2023/06/07 10:09:53;;;;;;;4.47;3.23;;;37.30;53.40;;;;;;4978800;28;20621;-77
2023/06/07 10:12:22;;;;;;;4.47;3.47;;;37.60;52.10;;;;;;5013660;28;20586;-77
2023/06/07 10:14:51;;;;;;;4.37;3.67;;;37.90;50.70;;;;;;5012848;28;20596;-77
2023/06/07 10:17:24;;;;;;;5.23;3.80;;;38.10;50.30;;;;;;5011975;28;20628;-77
2023/06/07 10:19:57;;;;;;;4.33;3.60;;;38.40;49.60;;;;;;4976899;28;20648;-77
2023/06/07 10:22:32;;;;;;;5.40;3.00;;;38.50;48.10;;;;;;5011816;28;20581;-78
2023/06/07 10:25:02;;;;;;;6.27;3.40;;;38.40;47.30;;;;;;4994021;28;20600;-78
2023/06/07 10:27:38;;;;;;;5.97;3.43;;;37.90;46.40;;;;;;5011509;28;20607;-78
2023/06/07 10:30:11;;;;;;;4.60;3.07;;;37.20;45.20;;;;;;5011001;28;20584;-77
2023/06/07 10:32:38;;;;;;;6.23;3.63;;;36.40;45.40;;;;;;5011510;28;20568;-78
2023/06/07 10:35:10;;;;;;;5.50;3.00;;;35.60;45.60;;;;;;4993689;28;20576;-78
2023/06/07 10:37:37;;;;;;;5.10;3.70;;;34.80;45.90;;;;;;4980525;28;20603;-77
2023/06/07 10:40:09;;;;;;;4.53;3.80;;;34.10;46.40;;;;;;5010866;28;20934;-78
2023/06/07 10:42:37;;;;;;;5.47;3.53;;;33.40;46.90;;;;;;4993768;28;20989;-77
2023/06/07 10:45:04;;;;;;;7.80;4.30;;;32.70;47.30;;;;;;5010879;28;20571;-77
2023/06/07 10:47:30;;;;;;;7.47;3.77;;;32.00;47.80;;;;;;4977646;28;20589;-77
2023/06/07 10:49:57;;;;;;;5.93;5.03;;;31.30;48.40;;;;;;5011059;28;20600;-77
2023/06/07 10:52:26;;;;;;;5.97;4.40;;;30.90;49.30;;;;;;4993191;28;20628;-77
2023/06/07 10:54:52;;;;;;;6.73;4.73;;;30.50;50.00;;;;;;4993626;28;20581;-77
2023/06/07 10:57:37;;;;;;;8.00;4.60;;;30.20;50.60;;;;;;5011369;28;20940;-77
2023/06/07 11:00:29;;;;;;;7.93;5.13;;;29.80;51.50;;;;;;4993406;28;20202;-78
2023/06/07 11:03:04;;;;;;;7.20;5.00;;;29.60;52.60;;;;;;5005687;28;20634;-77
2023/06/07 11:05:52;;;;;;;6.90;5.20;;;29.60;53.00;;;;;;4982531;28;20696;-78
2023/06/07 11:08:29;;;;;;;6.00;4.63;;;29.40;53.30;;;;;;4994911;28;20782;-77
2023/06/07 11:10:59;;;;;;;6.30;5.03;;;29.20;53.20;;;;;;4999630;28;20585;-77
2023/06/07 11:13:43;;;;;;;9.77;5.87;;;28.90;53.10;;;;;;4980404;28;20633;-77
2023/06/07 11:16:24;;;;;;;5.90;4.83;;;28.60;54.30;;;;;;4973263;28;20606;-77
2023/06/07 11:19:00;;;;;;;7.57;6.10;;;28.10;54.30;;;;;;4992054;28;20616;-77
2023/06/07 11:21:27;;;;;;;6.93;5.33;;;27.80;55.20;;;;;;5010557;28;20580;-77
2023/06/07 11:24:12;;;;;;;7.77;6.87;;;27.70;55.70;;;;;;4992960;28;20566;-77
2023/06/07 11:26:38;;;;;;;6.00;5.50;;;27.70;56.90;;;;;;4993415;28;20972;-77
2023/06/07 11:29:05;;;;;;;6.40;5.80;;;27.70;56.90;;;;;;4992641;28;20657;-77
2023/06/07 11:31:31;;;;;;;6.93;6.27;;;27.60;56.90;;;;;;4995209;28;20580;-78
2023/06/07 11:33:56;;;;;;;8.87;7.57;;;27.50;57.20;;;;;;4962997;28;20582;-78
2023/06/07 11:36:22;;;;;;;8.53;6.77;;;27.40;57.30;;;;;;4997891;28;20173;-78
2023/06/07 11:38:54;;;;;;;11.47;7.60;;;27.20;57.50;;;;;;5013989;28;20206;-78
2023/06/07 11:41:21;;;;;;;6.80;6.10;;;27.10;58.00;;;;;;5014268;28;20247;-78
2023/06/07 11:43:47;;;;;;;8.20;6.27;;;27.00;58.40;;;;;;4996509;28;20585;-78
2023/06/07 11:46:13;;;;;;;8.20;7.30;;;27.00;59.00;;;;;;4996928;28;20585;-78
2023/06/07 11:48:39;;;;;;;7.30;6.60;;;27.10;59.70;;;;;;4996441;28;20685;-79
2023/06/07 11:51:05;;;;;;;10.73;7.30;;;27.20;60.80;;;;;;4979830;28;20896;-78
2023/06/07 11:53:32;;;;;;;12.33;8.93;;;27.30;61.30;;;;;;5014142;28;20580;-78
2023/06/07 11:55:59;;;;;;;8.20;7.13;;;27.40;61.70;;;;;;4981342;28;20205;-78
2023/06/07 11:58:25;;;;;;;8.03;7.30;;;27.40;61.90;;;;;;5008284;28;21133;-78
2023/06/07 12:00:52;;;;;;;9.93;8.33;;;27.50;62.30;;;;;;5004631;28;20727;-78
2023/06/07 12:03:21;;;;;;;8.80;8.00;;;27.60;62.90;;;;;;4997656;28;20604;-78
2023/06/07 12:05:48;;;;;;;9.57;8.57;;;27.70;62.90;;;;;;5013168;28;20603;-78
2023/06/07 12:08:17;;;;;;;10.60;9.50;;;27.70;62.90;;;;;;5015287;28;20629;-78
2023/06/07 12:10:53;;;;;;;9.57;8.67;;;27.70;63.00;;;;;;5019013;28;20266;-78
2023/06/07 12:13:20;;;;;;;10.33;9.33;;;27.60;63.00;;;;;;5015182;28;20660;-75
2023/06/07 12:15:54;;;;;;;11.30;8.10;;;27.40;62.50;;;;;;5013911;28;20581;-78
2023/06/07 12:18:28;;;;;;;8.73;7.93;;;27.30;63.20;;;;;;4980566;28;20617;-79
2023/06/07 12:21:12;;;;;;;9.50;8.60;;;27.20;64.50;;;;;;4993541;28;21287;-78
2023/06/07 12:23:47;;;;;;;9.60;7.70;;;27.20;64.90;;;;;;5006549;28;20605;-78
2023/06/07 12:26:15;;;;;;;9.53;7.33;;;27.10;64.60;;;;;;4983770;28;20588;-78
2023/06/07 12:28:42;;;;;;;8.10;7.33;;;27.00;64.40;;;;;;4980539;28;20650;-78
2023/06/07 12:31:20;;;;;;;9.60;8.30;;;26.90;64.20;;;;;;4978778;28;20705;-78
2023/06/07 12:33:53;;;;;;;11.73;9.60;;;26.70;64.90;;;;;;4978967;28;20580;-78
2023/06/07 12:36:19;;;;;;;11.33;10.03;;;26.60;65.00;;;;;;4995363;28;20578;-78
2023/06/07 12:38:45;;;;;;;10.50;9.50;;;26.30;65.00;;;;;;4961370;28;20629;-78
2023/06/07 12:41:10;;;;;;;13.37;9.60;;;26.10;66.20;;;;;;4993813;28;21148;-78
2023/06/07 12:43:36;;;;;;;11.63;9.50;;;25.90;65.80;;;;;;4998754;28;20198;-78
2023/06/07 12:46:02;;;;;;;12.07;10.27;;;25.70;67.00;;;;;;5004916;28;20258;-79
2023/06/07 12:48:27;;;;;;;11.53;10.30;;;25.40;67.90;;;;;;4983895;28;20256;-79
2023/06/07 12:50:54;;;;;;;13.40;11.93;;;25.10;70.10;;;;;;4999732;28;20237;-79